createdAt,value
2018-11-26T00:00:33.530Z,99699.31
2018-11-26T00:03:01.203Z,99698.55
2018-11-26T00:05:28.991Z,99690.13
2018-11-26T00:07:56.720Z,99694.05
2018-11-26T00:11:35.561Z,99689.75
2018-11-26T00:14:03.589Z,99694.74
2018-11-26T00:16:31.281Z,99690.97
2018-11-26T00:18:58.974Z,99687.87
2018-11-26T00:21:26.682Z,99690.20
2018-11-26T00:23:54.429Z,99691.03
2018-11-26T00:26:22.122Z,99689.68
2018-11-26T00:28:49.946Z,99682.60
2018-11-26T00:31:17.714Z,99685.31
2018-11-26T00:33:45.426Z,99689.75
2018-11-26T00:36:13.146Z,99694.34
2018-11-26T00:38:40.914Z,99697.15
2018-11-26T00:41:08.598Z,99699.62
2018-11-26T00:43:36.293Z,99690.90
2018-11-26T00:46:04.227Z,99691.79
2018-11-26T00:48:31.930Z,99687.42
2018-11-26T00:50:59.638Z,99686.53
2018-11-26T00:53:27.297Z,99693.08
2018-11-26T00:55:55.046Z,99690.90
2018-11-26T00:58:22.774Z,99690.14
2018-11-26T01:00:50.513Z,99692.45
2018-11-26T01:03:18.214Z,99685.47
2018-11-26T01:05:45.924Z,99690.90
2018-11-26T01:08:13.641Z,99693.52
2018-11-26T01:10:41.369Z,99692.39
2018-11-26T01:13:09.018Z,99679.95
2018-11-26T01:15:36.793Z,99677.02
2018-11-26T01:18:08.714Z,99686.53
2018-11-26T01:20:46.389Z,99688.19
2018-11-26T01:23:19.685Z,99685.77
2018-11-26T01:25:47.546Z,99683.49
2018-11-26T01:28:15.213Z,99680.78
2018-11-26T01:30:42.906Z,99688.09
2018-11-26T01:33:10.640Z,99683.88
2018-11-26T01:35:38.430Z,99689.60
2018-11-26T01:38:06.166Z,99693.44
2018-11-26T01:40:39.540Z,99690.30
2018-11-26T01:43:07.370Z,99692.18
2018-11-26T01:45:35.112Z,99696.69
2018-11-26T01:48:02.852Z,99693.00
2018-11-26T01:50:30.594Z,99695.86
2018-11-26T01:52:58.302Z,99697.31
2018-11-26T01:55:26.044Z,99695.09
2018-11-26T01:57:53.846Z,99695.03
2018-11-26T02:00:24.011Z,99694.89
2018-11-26T02:02:51.433Z,99694.36
2018-11-26T02:05:19.089Z,99696.84
2018-11-26T02:07:46.851Z,99689.39
2018-11-26T02:10:16.052Z,99699.55
2018-11-26T02:12:50.485Z,99691.78
2018-11-26T02:15:32.959Z,99696.47
2018-11-26T02:18:00.625Z,99692.63
2018-11-26T02:20:28.421Z,99690.22
2018-11-26T02:22:56.078Z,99688.09
2018-11-26T02:25:23.811Z,99685.62
2018-11-26T02:27:51.590Z,99684.16
2018-11-26T02:30:19.231Z,99684.70
2018-11-26T02:32:46.910Z,99684.34
2018-11-26T02:35:14.614Z,99680.11
2018-11-26T02:37:44.426Z,99674.38
2018-11-26T02:40:19.696Z,99680.41
2018-11-26T02:42:47.491Z,99677.39
2018-11-26T02:45:15.246Z,99681.70
2018-11-26T02:47:42.917Z,99675.30
2018-11-26T02:50:10.640Z,99679.36
2018-11-26T02:52:38.394Z,99679.42
2018-11-26T02:55:06.219Z,99677.41
2018-11-26T02:57:33.861Z,99676.12
2018-11-26T03:00:01.627Z,99677.53
2018-11-26T03:02:29.337Z,99666.48
2018-11-26T03:04:57.073Z,99663.98
2018-11-26T03:07:28.217Z,99665.42
2018-11-26T03:09:55.977Z,99663.24
2018-11-26T03:12:23.714Z,99666.55
2018-11-26T03:14:51.418Z,99661.12
2018-11-26T03:17:19.142Z,99659.17
2018-11-26T03:19:46.869Z,99655.70
2018-11-26T03:22:14.603Z,99655.26
2018-11-26T03:24:42.320Z,99662.70
2018-11-26T03:27:09.994Z,99669.85
2018-11-26T03:29:37.763Z,99666.41
2018-11-26T03:32:05.526Z,99667.23
2018-11-26T03:34:33.281Z,99671.83
2018-11-26T03:37:00.976Z,99671.73
2018-11-26T03:39:28.660Z,99674.09
2018-11-26T03:41:56.441Z,99676.05
2018-11-26T03:44:24.114Z,99683.13
2018-11-26T03:46:51.802Z,99682.06
2018-11-26T03:49:23.172Z,99674.25
2018-11-26T03:51:50.942Z,99684.84
2018-11-26T03:54:18.662Z,99680.87
2018-11-26T03:56:46.434Z,99681.02
2018-11-26T03:59:14.102Z,99681.32
2018-11-26T04:01:41.846Z,99678.68
2018-11-26T04:04:09.494Z,99679.80
2018-11-26T04:06:37.268Z,99677.59
2018-11-26T04:09:07.291Z,99675.34
2018-11-26T04:11:36.131Z,99673.52
2018-11-26T04:14:03.950Z,99672.45
2018-11-26T04:16:31.615Z,99667.99
2018-11-26T04:18:59.399Z,99665.11
2018-11-26T04:21:27.082Z,99671.11
2018-11-26T04:23:54.763Z,99677.06
2018-11-26T04:26:22.468Z,99680.13
2018-11-26T04:28:50.221Z,99681.63
2018-11-26T04:31:17.971Z,99674.61
2018-11-26T04:33:45.622Z,99673.98
2018-11-26T04:36:13.444Z,99667.66
2018-11-26T04:38:41.091Z,99673.37
2018-11-26T04:41:08.826Z,99664.27
2018-11-26T04:43:36.477Z,99666.84
2018-11-26T04:46:04.188Z,99667.89
2018-11-26T04:48:31.926Z,99666.11
2018-11-26T04:50:59.584Z,99664.75
2018-11-26T04:53:27.349Z,99663.09
2018-11-26T04:55:55.095Z,99667.58
2018-11-26T04:58:22.855Z,99665.63
2018-11-26T05:00:50.546Z,99674.00
2018-11-26T05:03:18.239Z,99680.89
2018-11-26T05:05:46.112Z,99676.98
2018-11-26T05:08:13.831Z,99670.81
2018-11-26T05:10:41.505Z,99665.26
2018-11-26T05:13:09.202Z,99670.97
2018-11-26T05:15:36.887Z,99669.50
2018-11-26T05:18:05.095Z,99668.19
2018-11-26T05:20:32.774Z,99666.95
2018-11-26T05:23:00.493Z,99671.47
2018-11-26T05:25:28.204Z,99668.76
2018-11-26T05:27:55.855Z,99673.45
2018-11-26T05:30:23.582Z,99667.70
2018-11-26T05:32:51.276Z,99673.87
2018-11-26T05:35:19.004Z,99664.40
2018-11-26T05:37:50.151Z,99665.27
2018-11-26T05:40:17.988Z,99666.02
2018-11-26T05:42:45.718Z,99667.44
2018-11-26T05:45:15.042Z,99668.19
2018-11-26T05:47:42.731Z,99667.67
2018-11-26T05:50:12.791Z,99670.27
2018-11-26T05:52:40.764Z,99668.30
2018-11-26T05:55:12.215Z,99672.29
2018-11-26T05:57:40.037Z,99670.07
2018-11-26T06:00:14.303Z,99673.72
2018-11-26T06:02:42.062Z,99673.64
2018-11-26T06:05:09.954Z,99677.51
2018-11-26T06:07:37.606Z,99680.02
2018-11-26T06:10:07.459Z,99683.14
2018-11-26T06:12:35.115Z,99683.73
2018-11-26T06:15:03.134Z,99679.00
2018-11-26T06:17:30.766Z,99682.08
2018-11-26T06:19:58.499Z,99678.65
2018-11-26T06:22:26.156Z,99685.52
2018-11-26T06:24:53.870Z,99689.08
2018-11-26T06:27:21.617Z,99692.72
2018-11-26T06:29:49.355Z,99689.71
2018-11-26T06:32:17.042Z,99688.77
2018-11-26T06:34:44.822Z,99694.68
2018-11-26T06:37:12.536Z,99694.82
2018-11-26T06:39:40.318Z,99698.95
2018-11-26T06:42:08.010Z,99696.78
2018-11-26T06:44:35.700Z,99704.23
2018-11-26T06:47:03.574Z,99701.94
2018-11-26T06:49:31.298Z,99706.58
2018-11-26T06:51:59.030Z,99697.33
2018-11-26T06:54:26.896Z,99703.69
2018-11-26T06:56:54.729Z,99704.06
2018-11-26T06:59:22.434Z,99710.39
2018-11-26T07:01:50.098Z,99712.88
2018-11-26T07:04:17.807Z,99718.48
2018-11-26T07:06:45.558Z,99722.39
2018-11-26T07:09:13.254Z,99726.23
2018-11-26T07:11:41.033Z,99721.84
2018-11-26T07:14:08.689Z,99724.13
2018-11-26T07:16:37.632Z,99729.39
2018-11-26T07:19:04.622Z,99730.75
2018-11-26T07:21:32.302Z,99728.75
2018-11-26T07:24:00.039Z,99735.22
2018-11-26T07:26:27.720Z,99730.48
2018-11-26T07:28:55.520Z,99727.06
2018-11-26T07:31:23.510Z,99732.14
2018-11-26T07:33:51.196Z,99732.73
2018-11-26T07:36:18.854Z,99729.58
2018-11-26T07:38:46.542Z,99726.53
2018-11-26T07:41:14.317Z,99728.30
2018-11-26T07:43:42.054Z,99725.97
2018-11-26T07:46:09.739Z,99725.09
2018-11-26T07:48:37.649Z,99723.09
2018-11-26T07:51:05.748Z,99723.77
2018-11-26T07:53:33.546Z,99735.08
2018-11-26T07:56:01.210Z,99736.38
2018-11-26T07:58:28.999Z,99739.05
2018-11-26T08:00:56.825Z,99738.39
2018-11-26T08:03:24.574Z,99738.27
2018-11-26T08:05:52.294Z,99742.47
2018-11-26T08:08:20.156Z,99742.87
2018-11-26T08:10:47.886Z,99747.01
2018-11-26T08:13:15.571Z,99747.11
2018-11-26T08:15:43.268Z,99749.60
2018-11-26T08:18:11.075Z,99758.56
2018-11-26T08:20:38.821Z,99761.45
2018-11-26T08:23:06.534Z,99766.41
2018-11-26T08:25:34.174Z,99766.52
2018-11-26T08:28:01.830Z,99761.45
2018-11-26T08:30:29.691Z,99762.98
2018-11-26T08:33:01.107Z,99761.19
2018-11-26T08:35:29.772Z,99767.11
2018-11-26T08:38:03.210Z,99769.99
2018-11-26T08:40:36.435Z,99778.23
2018-11-26T08:43:10.516Z,99777.63
2018-11-26T08:45:44.874Z,99781.31
2018-11-26T08:48:19.956Z,99781.94
2018-11-26T08:50:48.944Z,99780.21
2018-11-26T08:53:15.742Z,99777.79
2018-11-26T08:55:43.406Z,99773.67
2018-11-26T08:58:11.205Z,99775.55
2018-11-26T09:00:38.926Z,99785.36
2018-11-26T09:03:12.508Z,99784.46
2018-11-26T09:06:11.431Z,99780.21
2018-11-26T09:08:39.129Z,99784.66
2018-11-26T09:11:08.971Z,99780.48
2018-11-26T09:13:36.798Z,99790.94
2018-11-26T09:16:04.614Z,99792.21
2018-11-26T09:18:32.400Z,99791.47
2018-11-26T09:21:00.099Z,99789.10
2018-11-26T09:23:27.905Z,99791.05
2018-11-26T09:25:55.558Z,99790.66
2018-11-26T09:28:23.304Z,99796.73
2018-11-26T09:30:51.054Z,99794.40
2018-11-26T09:33:18.726Z,99800.72
2018-11-26T09:35:46.434Z,99797.69
2018-11-26T09:38:14.193Z,99801.34
2018-11-26T09:40:41.935Z,99803.80
2018-11-26T09:43:09.738Z,99803.55
2018-11-26T09:45:40.481Z,99805.00
2018-11-26T09:48:05.367Z,99805.05
2018-11-26T09:50:33.143Z,99805.59
2018-11-26T09:53:00.851Z,99807.80
2018-11-26T09:55:28.613Z,99809.05
2018-11-26T09:57:56.265Z,99809.76
2018-11-26T10:00:23.951Z,99812.58
2018-11-26T10:02:52.146Z,99809.16
2018-11-26T10:05:22.474Z,99809.53
2018-11-26T10:07:50.394Z,99814.61
2018-11-26T10:10:22.003Z,99812.77
2018-11-26T10:12:53.058Z,99808.92
2018-11-26T10:15:34.456Z,99810.74
2018-11-26T10:18:03.838Z,99815.23
2018-11-26T10:20:31.698Z,99805.75
2018-11-26T10:23:00.013Z,99805.09
2018-11-26T10:25:27.889Z,99805.78
2018-11-26T10:27:55.653Z,99805.64
2018-11-26T10:30:23.849Z,99804.25
2018-11-26T10:32:52.674Z,99798.13
2018-11-26T10:35:20.829Z,99799.64
2018-11-26T10:37:48.890Z,99794.83
2018-11-26T10:40:20.450Z,99792.29
2018-11-26T10:42:48.202Z,99792.39
2018-11-26T10:45:17.511Z,99792.56
2018-11-26T10:47:45.337Z,99787.18
2018-11-26T10:50:15.583Z,99786.36
2018-11-26T10:52:46.143Z,99785.45
2018-11-26T10:55:18.105Z,99787.41
2018-11-26T10:57:46.018Z,99780.28
2018-11-26T11:00:23.058Z,99780.31
2018-11-26T11:02:51.214Z,99775.81
2018-11-26T11:05:19.082Z,99777.08
2018-11-26T11:07:46.867Z,99781.77
2018-11-26T11:10:17.717Z,99785.04
2018-11-26T11:12:45.430Z,99776.09
2018-11-26T11:15:13.358Z,99776.41
2018-11-26T11:17:41.141Z,99782.69
2018-11-26T11:20:17.560Z,99780.02
2018-11-26T11:22:45.310Z,99782.06
2018-11-26T11:25:16.694Z,99773.66
2018-11-26T11:27:44.421Z,99787.23
2018-11-26T11:30:15.523Z,99780.70
2018-11-26T11:32:43.295Z,99785.96
2018-11-26T11:35:12.485Z,99782.50
2018-11-26T11:37:41.111Z,99778.70
2018-11-26T11:40:27.863Z,99780.09
2018-11-26T11:42:56.632Z,99787.16
2018-11-26T11:45:25.276Z,99783.41
2018-11-26T11:47:52.993Z,99786.20
2018-11-26T11:50:21.339Z,99784.20
2018-11-26T11:52:49.299Z,99784.55
2018-11-26T11:55:20.953Z,99788.11
2018-11-26T11:57:48.952Z,99794.09
2018-11-26T12:00:37.246Z,99791.20
2018-11-26T12:03:12.931Z,99794.83
2018-11-26T12:05:40.657Z,99797.27
2018-11-26T12:08:08.944Z,99786.64
2018-11-26T12:10:37.163Z,99787.75
2018-11-26T12:13:06.842Z,99783.81
2018-11-26T12:15:36.373Z,99777.92
2018-11-26T12:18:05.216Z,99785.56
2018-11-26T12:20:33.144Z,99782.80
2018-11-26T12:23:00.915Z,99782.59
2018-11-26T12:25:29.280Z,99773.14
2018-11-26T12:27:57.626Z,99782.56
2018-11-26T12:30:27.818Z,99778.95
2018-11-26T12:32:56.011Z,99780.53
2018-11-26T12:35:23.893Z,99774.92
2018-11-26T12:37:51.807Z,99779.99
2018-11-26T12:40:21.521Z,99780.09
2018-11-26T12:42:51.103Z,99782.53
2018-11-26T12:45:22.455Z,99790.62
2018-11-26T12:47:50.227Z,99788.24
2018-11-26T12:50:18.124Z,99784.72
2018-11-26T12:52:46.103Z,99788.84
2018-11-26T12:55:17.171Z,99791.51
2018-11-26T12:57:46.246Z,99791.83
2018-11-26T13:00:17.725Z,99797.38
2018-11-26T13:02:47.425Z,99795.31
2018-11-26T13:05:16.622Z,99790.62
2018-11-26T13:07:44.567Z,99795.34
2018-11-26T13:10:14.844Z,99798.71
2018-11-26T13:12:43.183Z,99794.91
2018-11-26T13:15:14.318Z,99798.11
2018-11-26T13:17:42.168Z,99795.06
2018-11-26T13:20:14.438Z,99790.14
2018-11-26T13:22:42.614Z,99793.06
2018-11-26T13:25:12.324Z,99792.05
2018-11-26T13:27:43.566Z,99791.98
2018-11-26T13:30:17.055Z,99787.72
2018-11-26T13:32:46.835Z,99794.45
2018-11-26T13:35:15.823Z,99793.11
2018-11-26T13:37:43.850Z,99791.95
2018-11-26T13:40:13.160Z,99794.25
2018-11-26T13:42:41.316Z,99798.52
2018-11-26T13:45:13.388Z,99796.66
2018-11-26T13:47:41.671Z,99798.41
2018-11-26T13:50:29.956Z,99799.20
2018-11-26T13:52:57.847Z,99806.95
2018-11-26T13:55:25.618Z,99804.08
2018-11-26T13:57:53.347Z,99802.78
2018-11-26T14:00:21.423Z,99808.05
2018-11-26T14:02:50.863Z,99816.81
2018-11-26T14:05:20.707Z,99809.28
2018-11-26T14:07:49.391Z,99813.09
2018-11-26T14:10:21.399Z,99816.89
2018-11-26T14:13:00.179Z,99813.77
2018-11-26T14:15:27.996Z,99823.31
2018-11-26T14:17:55.988Z,99816.60
2018-11-26T14:20:23.760Z,99823.17
2018-11-26T14:22:51.478Z,99815.71
2018-11-26T14:25:19.493Z,99826.30
2018-11-26T14:27:47.685Z,99833.47
2018-11-26T14:30:19.509Z,99826.72
2018-11-26T14:32:47.387Z,99835.44
2018-11-26T14:35:15.119Z,99836.20
2018-11-26T14:37:43.161Z,99842.83
2018-11-26T14:40:19.051Z,99844.88
2018-11-26T14:42:47.571Z,99847.60
2018-11-26T14:45:15.117Z,99852.80
2018-11-26T14:47:43.630Z,99855.80
2018-11-26T14:50:13.088Z,99855.63
2018-11-26T14:52:43.054Z,99864.48
2018-11-26T14:55:13.776Z,99864.89
2018-11-26T14:57:41.573Z,99870.41
2018-11-26T15:00:13.944Z,99873.26
2018-11-26T15:02:41.990Z,99873.67
2018-11-26T15:05:10.290Z,99880.61
2018-11-26T15:07:38.049Z,99885.10
2018-11-26T15:10:12.322Z,99885.27
2018-11-26T15:12:40.581Z,99887.19
2018-11-26T15:15:24.635Z,99887.35
2018-11-26T15:17:52.520Z,99887.30
2018-11-26T15:20:24.001Z,99895.21
2018-11-26T15:22:53.337Z,99891.64
2018-11-26T15:25:26.757Z,99900.42
2018-11-26T15:28:00.944Z,99906.27
2018-11-26T15:30:28.645Z,99902.92
2018-11-26T15:32:56.423Z,99903.70
2018-11-26T15:35:24.537Z,99905.34
2018-11-26T15:37:52.295Z,99904.59
2018-11-26T15:40:20.987Z,99914.44
2018-11-26T15:42:49.191Z,99908.86
2018-11-26T15:45:22.695Z,99911.29
2018-11-26T15:47:51.733Z,99913.38
2018-11-26T15:50:19.569Z,99915.75
2018-11-26T15:52:47.323Z,99916.00
2018-11-26T15:55:17.004Z,99919.38
2018-11-26T15:57:44.764Z,99919.67
2018-11-26T16:00:24.080Z,99917.00
2018-11-26T16:02:52.412Z,99925.05
2018-11-26T16:05:27.829Z,99926.31
2018-11-26T16:08:00.847Z,99925.19
2018-11-26T16:10:28.653Z,99927.99
2018-11-26T16:12:58.500Z,99925.52
2018-11-26T16:15:33.095Z,99926.89
2018-11-26T16:18:02.637Z,99932.69
2018-11-26T16:20:30.519Z,99933.30
2018-11-26T16:22:59.175Z,99934.81
2018-11-26T16:25:26.879Z,99935.28
2018-11-26T16:27:54.851Z,99952.78
2018-11-26T16:30:22.600Z,99947.18
2018-11-26T16:32:55.422Z,99956.16
2018-11-26T16:35:25.403Z,99955.41
2018-11-26T16:37:53.582Z,99955.03
2018-11-26T16:40:21.398Z,99966.20
2018-11-26T16:42:49.327Z,99962.13
2018-11-26T16:45:27.052Z,99958.48
2018-11-26T16:47:56.475Z,99965.70
2018-11-26T16:50:27.091Z,99962.92
2018-11-26T16:52:55.378Z,99967.52
2018-11-26T16:55:23.197Z,99977.79
2018-11-26T16:57:51.296Z,99978.92
2018-11-26T17:00:22.712Z,99976.66
2018-11-26T17:02:52.265Z,99978.84
2018-11-26T17:05:26.092Z,99981.16
2018-11-26T17:07:53.812Z,99989.94
2018-11-26T17:10:21.797Z,99990.83
2018-11-26T17:12:49.606Z,99991.90
2018-11-26T17:15:17.947Z,99993.42
2018-11-26T17:17:45.966Z,99996.61
2018-11-26T17:20:15.059Z,99989.81
2018-11-26T17:22:43.205Z,99995.78
2018-11-26T17:25:13.626Z,99993.96
2018-11-26T17:27:42.380Z,100004.13
2018-11-26T17:30:19.644Z,100001.39
2018-11-26T17:32:49.483Z,100000.34
2018-11-26T17:35:17.351Z,100005.61
2018-11-26T17:37:45.048Z,100005.00
2018-11-26T17:40:21.977Z,100008.18
2018-11-26T17:42:50.267Z,100008.91
2018-11-26T17:45:18.793Z,100019.64
2018-11-26T17:47:48.551Z,100018.58
2018-11-26T17:50:27.077Z,100023.26
2018-11-26T17:52:54.998Z,100019.41
2018-11-26T17:55:22.848Z,100032.56
2018-11-26T17:57:51.077Z,100033.78
2018-11-26T18:00:24.989Z,100036.04
2018-11-26T18:02:52.737Z,100041.88
2018-11-26T18:05:25.137Z,100040.46
2018-11-26T18:08:03.277Z,100043.28
2018-11-26T18:10:31.020Z,100041.44
2018-11-26T18:12:58.821Z,100041.52
2018-11-26T18:15:26.861Z,100049.54
2018-11-26T18:17:54.615Z,100051.27
2018-11-26T18:20:22.499Z,100055.89
2018-11-26T18:22:52.241Z,100054.63
2018-11-26T18:25:21.399Z,100072.38
2018-11-26T18:28:02.288Z,100074.67
2018-11-26T18:30:35.615Z,100079.88
2018-11-26T18:33:03.892Z,100087.67
2018-11-26T18:35:31.646Z,100080.14
2018-11-26T18:37:59.366Z,100085.57
2018-11-26T18:40:27.044Z,100088.81
2018-11-26T18:42:54.718Z,100086.02
2018-11-26T18:45:23.002Z,100089.56
2018-11-26T18:47:56.162Z,100097.17
2018-11-26T18:50:23.967Z,100100.05
2018-11-26T18:52:53.120Z,100102.69
2018-11-26T18:55:21.410Z,100106.56
2018-11-26T18:57:49.251Z,100110.48
2018-11-26T19:00:21.014Z,100114.09
2018-11-26T19:02:48.920Z,100112.85
2018-11-26T19:05:17.865Z,100117.45
2018-11-26T19:07:45.555Z,100118.95
2018-11-26T19:10:17.003Z,100124.53
2018-11-26T19:12:47.101Z,100121.19
2018-11-26T19:15:48.443Z,100124.95
2018-11-26T19:18:18.557Z,100124.64
2018-11-26T19:20:46.231Z,100130.94
2018-11-26T19:23:13.920Z,100134.42
2018-11-26T19:25:43.146Z,100143.67
2018-11-26T19:28:11.075Z,100143.45
2018-11-26T19:30:38.763Z,100147.44
2018-11-26T19:33:08.386Z,100149.95
2018-11-26T19:35:36.455Z,100144.72
2018-11-26T19:38:05.047Z,100149.95
2018-11-26T19:40:33.049Z,100145.30
2018-11-26T19:43:00.771Z,100151.31
2018-11-26T19:45:29.015Z,100156.78
2018-11-26T19:47:57.095Z,100157.20
2018-11-26T19:50:24.811Z,100160.55
2018-11-26T19:52:53.579Z,100159.73
2018-11-26T19:55:23.041Z,100156.81
2018-11-26T19:57:53.454Z,100166.09
2018-11-26T20:00:25.699Z,100172.48
2018-11-26T20:03:16.276Z,100180.39
2018-11-26T20:06:02.479Z,100180.83
2018-11-26T20:08:30.248Z,100187.38
2018-11-26T20:10:57.983Z,100188.97
2018-11-26T20:13:25.715Z,100188.75
2018-11-26T20:15:53.991Z,100194.49
2018-11-26T20:18:21.759Z,100198.12
2018-11-26T20:20:49.579Z,100206.70
2018-11-26T20:23:17.279Z,100211.81
2018-11-26T20:25:46.174Z,100216.56
2018-11-26T20:28:12.827Z,100216.56
2018-11-26T20:30:40.577Z,100214.81
2018-11-26T20:33:08.692Z,100218.91
2018-11-26T20:35:36.444Z,100221.18
2018-11-26T20:38:08.640Z,100224.63
2018-11-26T20:40:36.448Z,100233.81
2018-11-26T20:43:06.719Z,100239.33
2018-11-26T20:45:34.607Z,100244.44
2018-11-26T20:48:02.323Z,100248.81
2018-11-26T20:50:30.090Z,100251.66
2018-11-26T20:52:57.794Z,100255.72
2018-11-26T20:55:25.902Z,100262.19
2018-11-26T20:57:55.395Z,100265.61
2018-11-26T21:00:25.128Z,100263.55
2018-11-26T21:02:54.852Z,100264.25
2018-11-26T21:05:22.653Z,100266.13
2018-11-26T21:07:50.472Z,100270.20
2018-11-26T21:10:18.827Z,100264.16
2018-11-26T21:12:47.799Z,100267.39
2018-11-26T21:15:17.375Z,100271.34
2018-11-26T21:17:50.063Z,100277.80
2018-11-26T21:20:29.174Z,100275.53
2018-11-26T21:22:57.594Z,100274.91
2018-11-26T21:25:25.420Z,100276.05
2018-11-26T21:27:53.167Z,100278.02
2018-11-26T21:30:20.925Z,100278.32
2018-11-26T21:32:48.687Z,100281.04
2018-11-26T21:35:18.116Z,100281.34
2018-11-26T21:37:48.788Z,100285.41
2018-11-26T21:40:20.772Z,100282.20
2018-11-26T21:42:49.250Z,100283.75
2018-11-26T21:45:20.867Z,100281.87
2018-11-26T21:47:48.641Z,100279.28
2018-11-26T21:50:16.431Z,100282.70
2018-11-26T21:52:44.332Z,100287.20
2018-11-26T21:55:15.659Z,100288.95
2018-11-26T21:57:43.575Z,100289.39
2018-11-26T22:00:26.975Z,100293.98
2018-11-26T22:02:55.634Z,100293.76
2018-11-26T22:05:23.767Z,100299.61
2018-11-26T22:07:51.539Z,100301.80
2018-11-26T22:10:21.921Z,100306.70
2018-11-26T22:12:52.144Z,100306.59
2018-11-26T22:15:20.011Z,100306.68
2018-11-26T22:17:47.804Z,100309.61
2018-11-26T22:20:20.398Z,100308.56
2018-11-26T22:22:48.287Z,100312.42
2018-11-26T22:25:16.108Z,100310.12
2018-11-26T22:27:43.964Z,100318.27
2018-11-26T22:30:17.279Z,100319.19
2018-11-26T22:32:45.151Z,100322.49
2018-11-26T22:35:12.976Z,100322.83
2018-11-26T22:37:40.813Z,100322.92
2018-11-26T22:40:11.729Z,100328.94
2018-11-26T22:42:40.263Z,100334.88
2018-11-26T22:45:13.072Z,100329.16
2018-11-26T22:47:41.391Z,100331.11
2018-11-26T22:50:15.536Z,100334.05
2018-11-26T22:52:43.331Z,100343.95
2018-11-26T22:55:12.631Z,100342.75
2018-11-26T22:57:40.990Z,100338.83
2018-11-26T23:00:21.629Z,100338.37
2018-11-26T23:02:50.356Z,100329.61
2018-11-26T23:05:18.119Z,100327.34
2018-11-26T23:07:45.803Z,100337.14
2018-11-26T23:10:13.543Z,100337.34
2018-11-26T23:12:41.261Z,100345.13
2018-11-26T23:15:12.777Z,100346.09
2018-11-26T23:17:41.437Z,100344.84
2018-11-26T23:20:11.979Z,100345.05
2018-11-26T23:22:39.760Z,100346.70
2018-11-26T23:25:09.953Z,100350.13
2018-11-26T23:27:37.740Z,100347.01
2018-11-26T23:30:14.888Z,100349.52
2018-11-26T23:32:43.509Z,100346.38
2018-11-26T23:35:11.273Z,100345.31
2018-11-26T23:37:39.096Z,100344.48
2018-11-26T23:40:09.264Z,100347.95
2018-11-26T23:42:37.059Z,100353.23
2018-11-26T23:45:08.255Z,100356.77
2018-11-26T23:47:36.023Z,100356.45
2018-11-26T23:50:04.420Z,100356.36
2018-11-26T23:52:32.151Z,100361.05
2018-11-26T23:54:59.900Z,100360.29
2018-11-26T23:57:27.643Z,100363.44
2018-11-26T23:59:55.454Z,100369.03
